Time;durP1;ratioP1;P1;durP2;ratioP2;P2;SDS_P1;SDS_P2;PMS_P1;PMS_P2;Temp;Humidity;BMP_temperature;BMP_pressure;BME280_temperature;BME280_humidity;BME280_pressure;Samples;Min_cycle;Max_cycle;Signal;HPM_P1;HPM_P2
2023/04/21 00:02:06;;;;;;;29.17;18.40;;;;;;;6.69;98.62;101412.69;5022522;28;20033;-69
2023/04/21 00:04:31;;;;;;;29.00;17.58;;;;;;;6.72;99.34;101418.84;5029045;28;20110;-70
2023/04/21 00:07:00;;;;;;;31.75;18.50;;;;;;;6.73;99.02;101420.59;5007988;28;20072;-70
2023/04/21 00:09:26;;;;;;;30.38;18.25;;;;;;;6.74;99.21;101408.81;5008965;28;20047;-70
2023/04/21 00:11:52;;;;;;;30.88;19.20;;;;;;;6.73;99.19;101404.38;5023599;28;20084;-70
2023/04/21 00:14:17;;;;;;;34.45;20.17;;;;;;;6.71;99.33;101395.44;5009015;28;20485;-70
2023/04/21 00:16:43;;;;;;;28.40;17.33;;;;;;;6.71;100.00;101392.72;5007606;28;20050;-70
2023/04/21 00:19:08;;;;;;;31.33;17.95;;;;;;;6.72;100.00;101394.50;5007923;28;20524;-70
2023/04/21 00:21:34;;;;;;;30.10;19.38;;;;;;;6.72;99.94;101394.50;5005807;28;20512;-70
2023/04/21 00:23:59;;;;;;;32.85;19.02;;;;;;;6.72;100.00;101389.09;5012880;28;20056;-70
2023/04/21 00:26:24;;;;;;;33.85;19.60;;;;;;;6.71;99.99;101384.63;5027170;28;20049;-69
2023/04/21 00:28:50;;;;;;;33.25;18.00;;;;;;;6.73;100.00;101382.72;5019897;28;20033;-70
2023/04/21 00:31:16;;;;;;;29.55;17.70;;;;;;;6.72;100.00;101377.41;5015409;28;20108;-70
2023/04/21 00:33:41;;;;;;;31.42;18.77;;;;;;;6.66;100.00;101367.75;5007884;28;20044;-70
2023/04/21 00:36:07;;;;;;;31.75;18.98;;;;;;;6.67;100.00;101371.31;5004709;28;20046;-70
2023/04/21 00:38:32;;;;;;;32.20;18.38;;;;;;;6.65;100.00;101374.97;5006924;28;20117;-70
2023/04/21 00:40:57;;;;;;;33.97;18.58;;;;;;;6.66;100.00;101381.25;5014158;28;20486;-70
2023/04/21 00:43:24;;;;;;;36.88;19.48;;;;;;;6.63;100.00;101368.78;5007028;28;20045;-69
2023/04/21 00:45:52;;;;;;;36.65;20.17;;;;;;;6.65;100.00;101366.88;5006929;28;20124;-70
2023/04/21 00:48:18;;;;;;;34.67;19.80;;;;;;;6.65;100.00;101364.16;5007423;28;20125;-70
2023/04/21 00:50:44;;;;;;;32.38;18.77;;;;;;;6.63;100.00;101368.78;5006499;28;20034;-70
2023/04/21 00:53:10;;;;;;;33.70;19.33;;;;;;;6.64;100.00;101373.22;5006897;28;20073;-70
2023/04/21 00:55:36;;;;;;;36.17;19.88;;;;;;;6.63;100.00;101368.78;5027452;28;20087;-70
2023/04/21 00:58:02;;;;;;;30.80;18.70;;;;;;;6.64;100.00;101367.81;5003020;28;20033;-70
2023/04/21 01:00:28;;;;;;;34.95;18.77;;;;;;;6.66;100.00;101370.44;5025650;28;20055;-70
2023/04/21 01:02:55;;;;;;;36.78;18.65;;;;;;;6.65;100.00;101366.88;5006331;28;20041;-70
2023/04/21 01:05:21;;;;;;;33.63;19.88;;;;;;;6.66;100.00;101378.56;5007186;28;20038;-71
2023/04/21 01:07:47;;;;;;;34.63;18.92;;;;;;;6.65;100.00;101371.41;5006126;28;20054;-70
2023/04/21 01:10:14;;;;;;;34.65;19.63;;;;;;;6.59;100.00;101350.94;5022461;28;20037;-70
2023/04/21 01:12:46;;;;;;;34.15;18.92;;;;;;;6.66;100.00;101365.03;5024120;28;20030;-70
2023/04/21 01:15:14;;;;;;;34.72;19.60;;;;;;;6.65;100.00;101358.75;5006641;28;20034;-70
2023/04/21 01:17:40;;;;;;;33.70;18.83;;;;;;;6.62;100.00;101352.59;5039720;28;20025;-70
2023/04/21 01:20:14;;;;;;;32.95;19.27;;;;;;;6.62;100.00;101358.91;5012151;28;20073;-70
2023/04/21 01:22:41;;;;;;;32.78;17.92;;;;;;;6.62;100.00;101349.91;5026041;28;20037;-70
2023/04/21 01:25:07;;;;;;;34.17;18.60;;;;;;;6.61;100.00;101346.31;5026081;28;20545;-70
2023/04/21 01:27:34;;;;;;;34.03;18.67;;;;;;;6.61;100.00;101338.22;5007330;28;20481;-69
2023/04/21 01:30:00;;;;;;;35.33;18.80;;;;;;;6.60;100.00;101341.00;5010900;28;20053;-70
2023/04/21 01:32:28;;;;;;;38.15;20.08;;;;;;;6.61;100.00;101348.16;5024823;28;20750;-70
2023/04/21 01:34:55;;;;;;;30.50;18.35;;;;;;;6.59;100.00;101331.16;5018802;28;20048;-70
2023/04/21 01:37:25;;;;;;;32.50;17.63;;;;;;;6.57;100.00;101341.13;5006470;28;20045;-70
2023/04/21 01:39:53;;;;;;;30.75;17.02;;;;;;;6.56;100.00;101342.97;5007105;28;20042;-70
2023/04/21 01:42:20;;;;;;;36.65;17.83;;;;;;;6.53;100.00;101345.84;5022793;28;20056;-69
2023/04/21 01:44:48;;;;;;;40.70;18.63;;;;;;;6.51;100.00;101331.50;5007156;28;20034;-69
2023/04/21 01:47:16;;;;;;;29.08;17.92;;;;;;;6.53;100.00;101337.72;5019023;28;20036;-70
2023/04/21 01:49:42;;;;;;;33.60;18.42;;;;;;;6.52;100.00;101335.94;5006182;28;20038;-69
2023/04/21 01:52:07;;;;;;;36.40;19.55;;;;;;;6.51;100.00;101320.69;5006399;28;20065;-69
2023/04/21 01:54:33;;;;;;;34.20;18.50;;;;;;;6.50;100.00;101312.66;5006092;28;20208;-70
2023/04/21 01:56:59;;;;;;;33.35;18.33;;;;;;;6.47;100.00;101308.28;5007344;28;20052;-69
2023/04/21 01:59:25;;;;;;;38.78;18.75;;;;;;;6.46;100.00;101306.53;5006925;28;20037;-69
2023/04/21 02:01:50;;;;;;;37.83;18.75;;;;;;;6.44;100.00;101300.34;4997199;28;20079;-69
2023/04/21 02:04:15;;;;;;;38.20;19.10;;;;;;;6.45;100.00;101310.19;5006111;28;20175;-69
2023/04/21 02:06:42;;;;;;;32.78;18.88;;;;;;;6.44;100.00;101308.44;5006280;28;20084;-70
2023/04/21 02:09:07;;;;;;;34.72;17.98;;;;;;;6.45;100.00;101306.59;5005207;28;20109;-70
2023/04/21 02:11:33;;;;;;;33.58;16.85;;;;;;;6.46;100.00;101292.13;5021916;28;20243;-69
2023/04/21 02:13:58;;;;;;;31.92;18.17;;;;;;;6.45;100.00;101279.59;5005806;28;20046;-70
2023/04/21 02:16:25;;;;;;;31.65;18.30;;;;;;;6.42;100.00;101279.72;5009794;28;20390;-69
2023/04/21 02:18:52;;;;;;;34.42;18.52;;;;;;;6.42;100.00;101288.69;5005361;28;20034;-69
2023/04/21 02:21:18;;;;;;;34.67;18.25;;;;;;;6.40;100.00;101290.63;5020219;28;20497;-70
2023/04/21 02:23:44;;;;;;;33.90;17.52;;;;;;;6.39;100.00;101291.56;5006967;28;20494;-70
2023/04/21 02:26:10;;;;;;;35.88;19.13;;;;;;;6.36;100.00;101284.47;5005924;28;20114;-70
2023/04/21 02:28:35;;;;;;;35.63;18.05;;;;;;;6.36;100.00;101279.06;5005196;28;20044;-69
2023/04/21 02:31:00;;;;;;;36.63;18.58;;;;;;;6.37;100.00;101280.81;5021261;28;20056;-70
2023/04/21 02:33:27;;;;;;;37.80;19.80;;;;;;;6.36;100.00;101280.91;5005343;28;20051;-70
2023/04/21 02:35:52;;;;;;;37.13;18.55;;;;;;;6.37;100.00;101272.72;5038069;28;20124;-70
2023/04/21 02:38:17;;;;;;;36.35;18.92;;;;;;;6.37;100.00;101274.53;5025547;28;20409;-70
2023/04/21 02:40:43;;;;;;;36.83;19.77;;;;;;;6.37;100.00;101275.41;5020527;28;20065;-70
2023/04/21 02:43:12;;;;;;;35.25;19.33;;;;;;;6.36;100.00;101270.09;4990261;28;20338;-70
2023/04/21 02:45:37;;;;;;;34.50;18.88;;;;;;;6.37;100.00;101266.44;5008523;28;20038;-70
2023/04/21 02:48:03;;;;;;;38.38;20.00;;;;;;;6.37;100.00;101263.72;5024826;28;20253;-69
2023/04/21 02:50:28;;;;;;;43.53;19.55;;;;;;;6.39;100.00;101267.25;5024036;28;20064;-69
2023/04/21 02:52:54;;;;;;;42.22;21.08;;;;;;;6.41;100.00;101264.47;5017106;28;20452;-69
2023/04/21 02:55:21;;;;;;;39.45;19.80;;;;;;;6.42;100.00;101272.50;5006532;28;20116;-70
2023/04/21 02:57:47;;;;;;;40.47;20.55;;;;;;;6.44;100.00;101270.59;5006673;28;20032;-70
2023/04/21 03:00:13;;;;;;;43.22;21.75;;;;;;;6.44;100.00;101261.63;5006226;28;20327;-70
2023/04/21 03:02:39;;;;;;;45.45;21.17;;;;;;;6.45;100.00;101258.84;5021057;28;20116;-69
2023/04/21 03:05:05;;;;;;;38.22;21.70;;;;;;;6.44;100.00;101251.69;5003959;28;20033;-70
2023/04/21 03:07:31;;;;;;;44.33;21.23;;;;;;;6.45;100.00;101247.16;5025426;28;20140;-71
2023/04/21 03:09:56;;;;;;;44.95;21.58;;;;;;;6.45;100.00;101257.97;5008289;28;20541;-70
2023/04/21 03:12:21;;;;;;;38.13;19.50;;;;;;;6.43;100.00;101257.16;5024679;28;20079;-70
2023/04/21 03:14:47;;;;;;;36.15;19.15;;;;;;;6.41;100.00;101257.22;5022914;28;20606;-70
2023/04/21 03:17:12;;;;;;;45.47;20.77;;;;;;;6.41;100.00;101261.75;5005327;28;20346;-70
2023/04/21 03:19:37;;;;;;;38.95;19.27;;;;;;;6.39;100.00;101262.72;5004600;28;20409;-70
2023/04/21 03:22:03;;;;;;;42.00;19.27;;;;;;;6.39;100.00;101259.16;5020435;28;20201;-70
2023/04/21 03:24:29;;;;;;;48.35;23.70;;;;;;;6.38;100.00;101263.66;5008084;28;20120;-71
2023/04/21 03:26:55;;;;;;;43.45;22.58;;;;;;;6.33;100.00;101268.41;5024323;28;20037;-70
2023/04/21 03:29:21;;;;;;;49.47;22.80;;;;;;;6.31;100.00;101261.34;5012026;28;20060;-71
2023/04/21 03:31:47;;;;;;;47.83;22.67;;;;;;;6.26;100.00;101250.75;5004032;28;20485;-70
2023/04/21 03:34:12;;;;;;;42.83;21.13;;;;;;;6.23;100.00;101253.59;5008942;28;20037;-70
2023/04/21 03:36:38;;;;;;;41.95;21.50;;;;;;;6.21;100.00;101252.78;5006856;28;20029;-70
2023/04/21 03:39:03;;;;;;;40.45;20.70;;;;;;;6.16;100.00;101256.66;5008030;28;20382;-71
2023/04/21 03:41:29;;;;;;;39.75;20.52;;;;;;;6.13;100.00;101254.97;5008130;28;20110;-70
2023/04/21 03:43:54;;;;;;;38.55;19.67;;;;;;;6.13;100.00;101257.69;5008420;28;20105;-71
2023/04/21 03:46:20;;;;;;;42.92;20.75;;;;;;;6.14;100.00;101251.31;5027041;28;20069;-70
2023/04/21 03:48:46;;;;;;;43.67;21.38;;;;;;;6.14;100.00;101251.31;5008072;28;20099;-70
2023/04/21 03:51:12;;;;;;;48.58;23.35;;;;;;;6.13;100.00;101250.44;5007630;28;20482;-71
2023/04/21 03:53:38;;;;;;;46.42;23.13;;;;;;;6.09;100.00;101248.84;5008678;28;20026;-70
2023/04/21 03:56:03;;;;;;;48.63;21.48;;;;;;;6.09;100.00;101250.66;5008190;28;20318;-70
2023/04/21 03:58:29;;;;;;;49.50;22.55;;;;;;;6.06;100.00;101251.72;5008971;28;20068;-70
2023/04/21 04:00:54;;;;;;;51.70;24.00;;;;;;;6.02;100.00;101247.38;5028131;28;20080;-70
2023/04/21 04:03:19;;;;;;;46.67;23.50;;;;;;;6.03;100.00;101246.44;5029220;28;20242;-70
2023/04/21 04:05:45;;;;;;;38.83;20.95;;;;;;;6.03;100.00;101243.72;5027704;28;20430;-70
2023/04/21 04:08:10;;;;;;;45.92;22.95;;;;;;;6.03;100.00;101253.66;5017278;28;20461;-70
2023/04/21 04:10:35;;;;;;;44.88;23.25;;;;;;;6.01;100.00;101251.00;5023982;28;20469;-70
2023/04/21 04:13:01;;;;;;;43.30;22.67;;;;;;;6.03;100.00;101248.25;5009086;28;20026;-70
2023/04/21 04:15:27;;;;;;;49.70;22.65;;;;;;;5.97;100.00;101235.94;5011357;28;20044;-70
2023/04/21 04:17:52;;;;;;;50.17;24.00;;;;;;;6.05;100.00;101252.63;5008965;28;20041;-70
2023/04/21 04:20:17;;;;;;;49.63;23.20;;;;;;;6.09;100.00;101253.38;5006576;28;20025;-70
2023/04/21 04:22:43;;;;;;;45.25;23.95;;;;;;;6.09;100.00;101251.53;4990996;28;20030;-70
2023/04/21 04:25:09;;;;;;;54.00;25.52;;;;;;;6.13;100.00;101241.47;5007998;28;20457;-69
2023/04/21 04:27:34;;;;;;;53.90;24.85;;;;;;;6.14;100.00;101243.22;5008816;28;20595;-69
2023/04/21 04:29:59;;;;;;;50.88;23.52;;;;;;;6.21;100.00;101254.63;5008794;28;20656;-69
2023/04/21 04:32:28;;;;;;;49.28;24.02;;;;;;;6.26;100.00;101249.88;5010643;28;20034;-69
2023/04/21 04:34:54;;;;;;;56.30;25.70;;;;;;;6.29;100.00;101252.41;5006379;28;20049;-70
2023/04/21 04:37:20;;;;;;;57.83;25.58;;;;;;;6.32;100.00;101249.56;5007739;28;20024;-69
2023/04/21 04:39:46;;;;;;;57.50;25.65;;;;;;;6.31;100.00;101246.00;5009545;28;20041;-69
2023/04/21 04:42:11;;;;;;;58.72;25.77;;;;;;;6.35;100.00;101253.00;5020973;28;20048;-70
2023/04/21 04:44:37;;;;;;;52.63;25.30;;;;;;;6.39;100.00;101253.75;5008339;28;20033;-70
2023/04/21 04:47:03;;;;;;;58.35;26.27;;;;;;;6.40;100.00;101260.88;5006488;28;20045;-70
2023/04/21 04:49:28;;;;;;;56.20;26.30;;;;;;;6.42;100.00;101258.97;5008331;28;20132;-70
2023/04/21 04:51:53;;;;;;;55.38;25.67;;;;;;;6.43;100.00;101262.56;5005210;28;20482;-70
2023/04/21 04:54:19;;;;;;;57.58;25.45;;;;;;;6.43;100.00;101255.31;5008429;28;20030;-70
2023/04/21 04:56:44;;;;;;;53.85;25.00;;;;;;;6.44;100.00;101259.78;5005697;28;20116;-69
2023/04/21 04:59:10;;;;;;;57.63;26.25;;;;;;;6.43;100.00;101251.75;5021708;28;20037;-70
2023/04/21 05:01:36;;;;;;;56.00;25.73;;;;;;;6.44;100.00;101257.09;5019907;28;20048;-70
2023/04/21 05:04:03;;;;;;;61.55;27.42;;;;;;;6.43;100.00;101260.72;4993301;28;20101;-70
2023/04/21 05:06:28;;;;;;;61.17;26.92;;;;;;;6.46;100.00;101262.41;4979888;28;20121;-70
2023/04/21 05:08:53;;;;;;;55.60;26.73;;;;;;;6.48;100.00;101265.91;4968897;28;20210;-70
2023/04/21 05:11:19;;;;;;;62.97;28.13;;;;;;;6.49;100.00;101270.38;4976144;28;20018;-70
2023/04/21 05:13:44;;;;;;;64.70;28.55;;;;;;;6.49;100.00;101268.56;4988227;28;20601;-70
2023/04/21 05:16:10;;;;;;;58.08;28.42;;;;;;;6.52;100.00;101262.97;4977774;28;20159;-70
2023/04/21 05:18:36;;;;;;;63.75;29.13;;;;;;;6.53;100.00;101262.06;4982970;28;20457;-70
2023/04/21 05:21:02;;;;;;;60.75;28.80;;;;;;;6.55;100.00;101281.75;4982657;28;20102;-70
2023/04/21 05:23:27;;;;;;;57.55;27.23;;;;;;;6.58;100.00;101267.22;4967254;28;20142;-70
2023/04/21 05:25:52;;;;;;;60.92;25.98;;;;;;;6.58;100.00;101280.75;4967359;28;20035;-70
2023/04/21 05:28:18;;;;;;;60.50;27.75;;;;;;;6.59;100.00;101272.56;4970520;28;20049;-69
2023/04/21 05:30:43;;;;;;;59.55;28.42;;;;;;;6.61;100.00;101275.16;4984904;28;20058;-70
2023/04/21 05:33:09;;;;;;;68.18;30.23;;;;;;;6.61;100.00;101285.97;4987503;28;20435;-70
2023/04/21 05:35:34;;;;;;;58.45;28.50;;;;;;;6.65;100.00;101283.06;4973059;28;20367;-69
2023/04/21 05:38:00;;;;;;;64.20;29.30;;;;;;;6.72;100.00;101299.88;4966585;28;20121;-69
2023/04/21 05:40:25;;;;;;;61.17;28.98;;;;;;;6.78;100.00;101285.16;4967975;28;20026;-70
2023/04/21 05:42:51;;;;;;;62.65;28.80;;;;;;;6.85;100.00;101292.00;4967386;28;20113;-70
2023/04/21 05:45:16;;;;;;;62.83;28.42;;;;;;;6.89;100.00;101290.91;4968109;28;20513;-69
2023/04/21 05:47:41;;;;;;;61.78;30.33;;;;;;;6.92;100.00;101285.34;4968733;28;20031;-70
2023/04/21 05:50:07;;;;;;;66.95;31.17;;;;;;;6.97;100.00;101294.09;4967181;28;20098;-69
2023/04/21 05:52:33;;;;;;;66.65;31.10;;;;;;;6.95;100.00;101296.03;4967848;28;20058;-69
2023/04/21 05:54:59;;;;;;;64.25;31.48;;;;;;;6.96;100.00;101299.59;4968015;28;20107;-69
2023/04/21 05:57:25;;;;;;;70.22;30.90;;;;;;;6.96;100.00;101291.50;4973567;28;20065;-70
2023/04/21 05:59:50;;;;;;;66.95;31.17;;;;;;;6.99;100.00;101294.00;4976976;28;20062;-69
2023/04/21 06:02:15;;;;;;;63.47;29.52;;;;;;;7.01;100.00;101294.84;4967934;28;20051;-70
2023/04/21 06:04:41;;;;;;;62.60;29.77;;;;;;;7.01;100.00;101295.72;4981763;28;20058;-70
2023/04/21 06:07:08;;;;;;;71.55;30.90;;;;;;;7.05;100.00;101291.91;4985049;28;20038;-69
2023/04/21 06:09:35;;;;;;;63.25;28.85;;;;;;;7.10;100.00;101288.97;4968176;28;20319;-70
2023/04/21 06:12:01;;;;;;;67.07;29.30;;;;;;;7.15;100.00;101284.19;4967730;28;20050;-70
2023/04/21 06:14:26;;;;;;;61.53;30.45;;;;;;;7.33;100.00;101287.78;4967824;28;20438;-70
2023/04/21 06:16:51;;;;;;;63.30;29.15;;;;;;;7.46;100.00;101275.38;4969726;28;20035;-70
2023/04/21 06:19:17;;;;;;;59.53;29.10;;;;;;;7.54;100.00;101281.22;4968467;28;20065;-70
2023/04/21 06:21:42;;;;;;;64.47;27.92;;;;;;;7.57;100.00;101281.06;4966854;28;20039;-70
2023/04/21 06:24:08;;;;;;;65.25;30.27;;;;;;;7.57;100.00;101275.66;4967596;28;20154;-70
2023/04/21 06:26:33;;;;;;;59.97;28.02;;;;;;;7.62;100.00;101288.94;4967251;28;20350;-70
2023/04/21 06:28:59;;;;;;;63.67;28.88;;;;;;;7.80;100.00;101287.09;4967309;28;20039;-70
2023/04/21 06:31:24;;;;;;;62.22;27.83;;;;;;;7.89;100.00;101284.75;4974645;28;20035;-70
2023/04/21 06:33:49;;;;;;;57.05;28.48;;;;;;;8.00;100.00;101292.31;4966174;28;20034;-70
2023/04/21 06:36:15;;;;;;;61.78;30.00;;;;;;;8.09;100.00;101278.25;4965334;28;20046;-70
2023/04/21 06:38:42;;;;;;;62.38;28.98;;;;;;;8.23;100.00;101279.31;4966491;28;20188;-70
2023/04/21 06:41:08;;;;;;;57.35;27.85;;;;;;;8.43;100.00;101284.53;4966856;28;20030;-70
2023/04/21 06:43:33;;;;;;;54.22;26.27;;;;;;;8.56;100.00;101287.41;4967665;28;20531;-70
2023/04/21 06:45:59;;;;;;;54.85;27.42;;;;;;;8.60;100.00;101289.00;4966692;28;20042;-70
2023/04/21 06:48:25;;;;;;;56.65;27.77;;;;;;;8.69;100.00;101285.75;4965379;28;20113;-70
2023/04/21 06:50:51;;;;;;;58.08;28.10;;;;;;;8.86;100.00;101282.94;4965061;28;20027;-70
2023/04/21 06:53:20;;;;;;;55.33;27.90;;;;;;;8.93;99.82;101278.91;4966064;28;20035;-70
2023/04/21 06:55:46;;;;;;;55.70;26.70;;;;;;;8.88;100.00;101283.72;4967411;28;20200;-70
2023/04/21 06:58:11;;;;;;;55.65;28.42;;;;;;;9.04;100.00;101280.97;4968387;28;20554;-69
2023/04/21 07:00:37;;;;;;;55.20;27.33;;;;;;;9.08;99.15;101282.53;4967077;28;20580;-70
2023/04/21 07:03:02;;;;;;;51.30;26.85;;;;;;;9.06;98.39;101287.19;4967447;28;20046;-70
2023/04/21 07:05:28;;;;;;;53.25;26.65;;;;;;;9.15;99.03;101283.94;4966165;28;20046;-69
2023/04/21 07:07:58;;;;;;;51.95;25.70;;;;;;;9.17;97.69;101287.44;4983605;28;20085;-70
2023/04/21 07:10:23;;;;;;;49.80;25.88;;;;;;;9.12;97.46;101273.25;4969934;28;20130;-70
2023/04/21 07:12:49;;;;;;;55.47;27.83;;;;;;;9.15;99.11;101280.34;4971150;28;20546;-70
2023/04/21 07:15:14;;;;;;;54.60;26.65;;;;;;;9.27;97.30;101278.72;4970925;28;20037;-70
2023/04/21 07:17:40;;;;;;;48.30;25.42;;;;;;;9.27;97.64;101282.31;4971603;28;20113;-70
2023/04/21 07:20:06;;;;;;;51.38;26.88;;;;;;;9.40;97.59;101287.91;4970614;28;20014;-69
2023/04/21 07:22:33;;;;;;;46.92;25.38;;;;;;;9.49;95.92;101287.34;4970382;28;20054;-70
2023/04/21 07:24:58;;;;;;;49.95;26.27;;;;;;;9.71;95.85;101289.63;4971070;28;20049;-70
2023/04/21 07:27:24;;;;;;;49.13;25.80;;;;;;;9.87;94.25;101287.69;4969763;28;20117;-70
2023/04/21 07:29:49;;;;;;;45.38;24.65;;;;;;;9.87;93.37;101284.09;4970369;28;20050;-69
2023/04/21 07:32:15;;;;;;;47.97;24.88;;;;;;;9.95;92.94;101285.38;4970423;28;20035;-70
2023/04/21 07:34:40;;;;;;;45.95;25.05;;;;;;;9.95;91.42;101282.66;4969740;28;20049;-70
2023/04/21 07:37:05;;;;;;;43.72;25.33;;;;;;;9.96;92.59;101272.66;4970222;28;20049;-70
2023/04/21 07:39:31;;;;;;;43.28;23.67;;;;;;;9.88;91.53;101272.25;4981656;28;20516;-70
2023/04/21 07:41:56;;;;;;;42.75;24.05;;;;;;;9.81;91.44;101279.91;4988662;28;20034;-69
2023/04/21 07:44:21;;;;;;;44.83;26.35;;;;;;;9.78;90.44;101280.09;4986658;28;20018;-69
2023/04/21 07:46:47;;;;;;;46.78;25.52;;;;;;;9.79;92.28;101276.44;4970086;28;20109;-69
2023/04/21 07:49:12;;;;;;;48.97;25.95;;;;;;;9.95;92.69;101269.06;4983269;28;20070;-69
2023/04/21 07:51:39;;;;;;;47.25;25.75;;;;;;;10.21;92.27;101271.94;4968024;28;20094;-69
2023/04/21 07:54:04;;;;;;;46.58;25.77;;;;;;;10.62;91.58;101272.00;4970433;28;20038;-69
2023/04/21 07:56:30;;;;;;;44.13;25.45;;;;;;;10.92;89.46;101276.41;4986921;28;20033;-70
2023/04/21 07:58:55;;;;;;;43.05;24.50;;;;;;;11.01;87.77;101272.22;4985005;28;20054;-70
2023/04/21 08:01:22;;;;;;;42.00;25.35;;;;;;;11.27;88.24;101276.72;4969858;28;20038;-69
2023/04/21 08:03:48;;;;;;;38.92;22.52;;;;;;;11.39;86.25;101267.72;4970541;28;20030;-70
2023/04/21 08:06:13;;;;;;;33.50;21.23;;;;;;;11.52;84.56;101275.94;4968661;28;20042;-69
2023/04/21 08:08:39;;;;;;;32.10;19.75;;;;;;;11.54;83.18;101262.19;4980994;28;20074;-70
2023/04/21 08:11:04;;;;;;;32.08;19.50;;;;;;;11.61;83.16;101260.78;4970148;28;20437;-70
2023/04/21 08:13:30;;;;;;;33.40;20.25;;;;;;;11.84;82.97;101270.94;4968825;28;20049;-68
2023/04/21 08:15:56;;;;;;;31.45;19.55;;;;;;;11.92;81.80;101259.50;4969967;28;20046;-67
2023/04/21 08:18:22;;;;;;;31.02;19.10;;;;;;;11.93;80.95;101262.13;4970170;28;20047;-69
2023/04/21 08:20:47;;;;;;;27.88;17.42;;;;;;;12.19;82.24;101248.47;4967384;28;20467;-69
2023/04/21 08:23:14;;;;;;;30.48;18.00;;;;;;;12.33;78.74;101252.91;4969967;28;20041;-70
2023/04/21 08:25:39;;;;;;;27.38;17.67;;;;;;;12.51;77.44;101260.63;4970168;28;20046;-69
2023/04/21 08:28:05;;;;;;;26.40;16.40;;;;;;;12.58;75.96;101254.69;4970104;28;20035;-69
2023/04/21 08:30:30;;;;;;;27.52;16.70;;;;;;;12.51;75.74;101260.63;4969087;28;20046;-69
2023/04/21 08:32:56;;;;;;;27.30;16.50;;;;;;;12.48;75.89;101260.84;4968657;28;20066;-67
2023/04/21 08:35:21;;;;;;;28.40;18.25;;;;;;;12.46;75.15;101257.38;4967795;28;20489;-68
2023/04/21 08:37:47;;;;;;;26.95;17.17;;;;;;;12.60;75.32;101259.06;4969684;28;20023;-69
2023/04/21 08:40:13;;;;;;;25.20;16.88;;;;;;;12.80;76.28;101252.13;4973591;28;20167;-68
2023/04/21 08:42:38;;;;;;;29.38;16.55;;;;;;;13.09;77.02;101251.75;4989296;28;20053;-69
2023/04/21 08:45:05;;;;;;;26.73;15.82;;;;;;;13.26;74.32;101244.03;4974438;28;20117;-69
2023/04/21 08:47:32;;;;;;;22.58;14.55;;;;;;;13.40;71.24;101250.31;4969416;28;20034;-69
2023/04/21 08:49:57;;;;;;;24.42;16.40;;;;;;;13.66;75.45;101250.97;4968970;28;20046;-69
2023/04/21 08:52:23;;;;;;;23.02;15.68;;;;;;;13.70;71.57;101250.63;4979786;28;20049;-69
2023/04/21 08:54:51;;;;;;;23.50;14.85;;;;;;;13.39;69.85;101246.72;4988988;28;20504;-68
2023/04/21 08:57:17;;;;;;;26.73;15.43;;;;;;;13.27;72.75;101243.03;4988724;28;20606;-69
2023/04/21 08:59:43;;;;;;;24.20;15.10;;;;;;;13.47;74.25;101252.41;4989277;28;20042;-69
2023/04/21 09:02:16;;;;;;;22.85;15.73;;;;;;;13.62;72.04;101250.38;4970361;28;20482;-69
2023/04/21 09:04:50;;;;;;;25.67;15.35;;;;;;;13.77;71.96;101246.41;4969657;28;20389;-69
2023/04/21 09:07:37;;;;;;;24.05;15.80;;;;;;;13.98;72.58;101242.94;4968202;28;20054;-69
2023/04/21 09:10:04;;;;;;;28.17;16.58;;;;;;;13.93;69.57;101247.91;4968818;28;20233;-68
2023/04/21 09:12:30;;;;;;;24.58;15.98;;;;;;;13.96;72.51;101239.47;4969318;28;20142;-69
2023/04/21 09:14:59;;;;;;;24.75;16.35;;;;;;;14.03;68.57;101238.88;4969099;28;20073;-69
2023/04/21 09:17:32;;;;;;;25.15;15.57;;;;;;;13.95;71.26;101241.34;4971153;28;20049;-68
2023/04/21 09:20:14;;;;;;;23.30;15.65;;;;;;;13.94;71.61;101234.13;4968589;28;20042;-69
2023/04/21 09:22:40;;;;;;;24.70;15.23;;;;;;;14.31;71.65;101228.38;4969367;28;20048;-69
2023/04/21 09:25:06;;;;;;;20.92;14.02;;;;;;;14.51;70.24;101230.41;4982391;28;20038;-69
2023/04/21 09:27:31;;;;;;;23.23;15.68;;;;;;;14.57;68.40;101219.94;4967836;28;20030;-69
2023/04/21 09:30:06;;;;;;;20.63;13.95;;;;;;;14.46;67.66;101229.88;4968335;28;20050;-69
2023/04/21 09:32:40;;;;;;;21.08;14.15;;;;;;;14.58;70.44;101230.75;4968006;28;20376;-69
2023/04/21 09:35:10;;;;;;;22.08;15.73;;;;;;;14.64;69.59;101224.78;4966790;28;20050;-69
2023/04/21 09:37:37;;;;;;;20.23;14.65;;;;;;;14.61;66.84;101229.63;4966728;28;20046;-69
2023/04/21 09:40:02;;;;;;;23.38;15.32;;;;;;;14.43;66.25;101232.84;4968360;28;20431;-69
2023/04/21 09:42:32;;;;;;;23.70;15.18;;;;;;;14.41;69.46;101225.75;4967647;28;20113;-69
2023/04/21 09:44:57;;;;;;;22.00;14.30;;;;;;;14.30;67.71;101229.38;4968372;28;20395;-68
2023/04/21 09:47:23;;;;;;;23.60;14.40;;;;;;;14.66;69.16;101232.84;4985119;28;20047;-69
2023/04/21 09:49:51;;;;;;;24.50;15.98;;;;;;;14.75;67.60;101232.09;4979181;28;20099;-69
2023/04/21 09:52:19;;;;;;;21.33;14.35;;;;;;;14.58;67.71;101230.75;4966345;28;20034;-69
2023/04/21 09:54:50;;;;;;;21.63;15.00;;;;;;;14.88;68.77;101216.38;4981029;28;20038;-69
2023/04/21 09:57:22;;;;;;;22.67;14.43;;;;;;;15.15;65.70;101223.22;4986528;28;20493;-69
2023/04/21 09:59:53;;;;;;;21.83;14.40;;;;;;;14.84;64.20;101223.09;4969649;28;20047;-69
2023/04/21 10:02:19;;;;;;;22.33;14.05;;;;;;;14.56;66.51;101220.94;4967634;28;20049;-69
2023/04/21 10:04:45;;;;;;;20.98;14.93;;;;;;;14.22;64.61;101215.44;4967876;28;20038;-69
2023/04/21 10:07:11;;;;;;;24.65;15.05;;;;;;;14.00;66.71;101228.16;4967807;28;20053;-69
2023/04/21 10:09:58;;;;;;;19.55;12.88;;;;;;;13.98;67.63;101210.97;4968063;28;20046;-68
2023/04/21 10:12:25;;;;;;;19.73;13.27;;;;;;;13.79;66.42;101208.00;4982947;28;20054;-69
2023/04/21 10:14:52;;;;;;;21.70;14.00;;;;;;;13.90;67.34;101205.28;4967819;28;20070;-69
2023/04/21 10:17:17;;;;;;;21.98;14.73;;;;;;;13.97;68.59;101200.19;4967512;28;20034;-68
2023/04/21 10:19:56;;;;;;;22.05;15.07;;;;;;;14.00;66.51;101198.06;4968285;28;20380;-69
2023/04/21 10:22:34;;;;;;;19.23;13.57;;;;;;;14.18;69.66;101201.19;4981791;28;20038;-68
2023/04/21 10:25:02;;;;;;;19.80;13.10;;;;;;;14.49;67.05;101191.31;4967777;28;20093;-69
2023/04/21 10:27:36;;;;;;;19.67;12.43;;;;;;;14.95;68.01;101192.03;4968036;28;20526;-68
2023/04/21 10:30:25;;;;;;;19.75;12.23;;;;;;;15.02;64.96;101187.78;4967247;28;20418;-68
2023/04/21 10:33:06;;;;;;;17.60;12.15;;;;;;;14.99;66.44;101179.81;4967880;28;20487;-69
2023/04/21 10:36:00;;;;;;;18.08;12.20;;;;;;;15.10;66.06;101187.13;4965515;28;20462;-69
2023/04/21 10:38:42;;;;;;;15.45;10.60;;;;;;;15.14;65.81;101177.63;4965850;28;20027;-69
2023/04/21 10:41:27;;;;;;;17.65;11.93;;;;;;;15.69;66.84;101161.84;4967673;28;20069;-69
2023/04/21 10:43:52;;;;;;;18.45;11.88;;;;;;;16.20;64.18;101155.44;4982570;28;20373;-69
2023/04/21 10:46:35;;;;;;;18.48;11.60;;;;;;;16.37;63.44;101159.34;4972826;28;20029;-69
2023/04/21 10:49:27;;;;;;;16.27;10.27;;;;;;;16.45;61.07;101154.91;4987508;28;20352;-69
2023/04/21 10:52:02;;;;;;;15.15;10.48;;;;;;;16.13;58.73;101165.22;4985430;28;20046;-69
2023/04/21 10:54:46;;;;;;;16.95;11.30;;;;;;;15.82;62.15;101160.63;4984819;28;20050;-68
2023/04/21 10:57:14;;;;;;;18.25;12.10;;;;;;;15.97;62.71;101146.53;4969657;28;20042;-69
2023/04/21 10:59:40;;;;;;;17.35;10.77;;;;;;;15.85;62.65;101142.13;4969169;28;20053;-70
2023/04/21 11:02:14;;;;;;;16.63;10.55;;;;;;;15.61;61.26;101143.28;4967055;28;20031;-69
2023/04/21 11:04:43;;;;;;;19.30;11.82;;;;;;;15.75;64.56;101145.72;4967890;28;20047;-68
2023/04/21 11:07:15;;;;;;;12.70;9.70;;;;;;;16.14;61.59;101131.28;4981841;28;20147;-68
2023/04/21 11:09:41;;;;;;;14.13;9.85;;;;;;;16.44;61.02;101133.94;4966866;28;20038;-68